KBJC/BJC METAR and TAF weather

Enter ICAO airport designator
Station Type Date Time Source
KBJC METAR 2018/12/10 23:55 UTC NOAA

KBJC 102355Z 23006KT 30SM BKN180 08/M18 A3009


Station Type Date Time Source
KBJC Decoded METAR 2018/12/10 23:55 UTC NOAA

Broomfield / Jeffco, CO, United States (KBJC) 39-55N 105-07W
Dec 10, 2018 - 06:55 PM EST / 2018.12.10 2355 UTC
Wind: from the SW (230 degrees) at 7 MPH (6 KT):0
Visibility: 30 mile(s):0
Sky conditions: mostly cloudy
Temperature: 46 F (8 C)
Dew Point: 0 F (-18 C)
Relative Humidity: 13%
Pressure (altimeter): 30.09 in. Hg (1018 hPa)
ob: KBJC 102355Z 23006KT 30SM BKN180 08/M18 A3009
cycle: 0

Station Type Date Time Source
KBJC TAF 2018/12/10 18:30 UTC NOAA

TAF KBJC 101727Z 1018/1118 VRB03KT P6SM FEW220
FM102100 08004KT P6SM FEW120 BKN220
FM110300 21008KT P6SM SCT120 BKN200
FM110900 34008KT P6SM SCT120 BKN200
FM111700 30012KT P6SM FEW120 BKN240


Example: see airport list